Phnom-Penh, Cambodja

8:52 PM ICT op 30 januari 2015 (GMT +0700)
Pochentong International | Change Station
CLOSE
Current Station
Luchthaven
Location: Phnom Penh,
Geometrische hoogte: 33 ft
Nabije weerstations

Hoogte 33 ft 11.55 °N, 104.84 °E | Updated 22 minutes ago

Haze
Heiigheid
81 °F
Voelt als 85 °F
N
4
Wind Variabel Wind van ZZW

Vandaag
Hoog -- | Laag -- °F
--% Kans op neerslag
Gisteren
Hoog -- | Laag -- °F
Precip. -- inches
6:25 AM 6:02 PM
Wassende maan, 83% visible
Druk 29.89 inches
Zicht 5.6 mijlen
Wolken
Warmteindex 85 °F
Dauwpunt 72 °F
Vochtigheid 74%
Neerslag 0.00 inches
Dikte sneeuw Niet beschikbaar.
UV Niet beschikbaar.
Pollen Niet beschikbaar.
Luchtkwaliteit Niet beschikbaar.
Flu Activity Niet beschikbaar.
METAR VDPP 301330Z 20003KT 9000 HZ NSC 27/22 Q1012

More Conditions Fewer Conditions

Druk 29.89 inches
Zicht 5.6 mijlen
Wolken
Warmteindex 85 °F
Dauwpunt 72 °F
Vochtigheid 74%
Neerslag 0.00 inches
Dikte sneeuw Niet beschikbaar.
UV Niet beschikbaar.
Pollen Niet beschikbaar.
Luchtkwaliteit Niet beschikbaar.
Flu Activity Niet beschikbaar.
METAR VDPP 301330Z 20003KT 9000 HZ NSC 27/22 Q1012

More Conditions Fewer Conditions

10-Day Weather Forecast

Almanac

Astronomie

Jan. 30, 2015 Opkomst Ondergang
Werkelijke tijd
Burgerlijke schemering
Nautische schemering
Astronomische schemering
Maan
Golflengte van het zichtbare licht
Daglengte
Tomorrow will be .
, % of the Moon is Illuminated

Extremen vandaag

Country Highs Country Lows

Community

WunderPhotos

Upload Photos

1,791,751 foto’s ge-upload!

WunderBlogs® & News

Nearby

Luchtkwaliteit

  Luchtkwaliteit LK-index Verontreinigende stof
Not available.

Dikte sneeuw

Station Depth Geometrische hoogte

Aardbevingen

Stad Distance Mag. Time & Date
Minimum magnitude displayed is 2.5.

Watertemperatuur langs de kust

Plaats Temperatuur

Nabije weerstations